ADDS METAR Data INFO
IDs: Format: Raw Decoded Include TAF

Data at: 0656 UTC 18 Feb 2018

KCRS 180653Z AUTO 05005KT 7SM CLR 08/08 A3018 RMK AO2 SLP219 T00830078
KCRS 180553Z AUTO 06004KT 6SM BR CLR 08/08 A3019 RMK AO2 SLP223 T00830083 10122 20083 401390061 58004
KCRS 180453Z AUTO 08005KT 8SM CLR 09/08 A3020 RMK AO2 SLP226 T00890083
KCRS 180353Z AUTO 07003KT 8SM CLR 10/09 A3021 RMK AO2 SLP229 T01000089
KCRS 180253Z AUTO 06004KT 10SM CLR 10/09 A3020 RMK AO2 SLP227 T01000089 51010
KCRS 180153Z AUTO 06003KT 10SM CLR 11/09 A3020 RMK AO2 SLP225 T01060094
KCRS 180053Z AUTO 09004KT 10SM CLR 11/09 A3018 RMK AO2 SLP221 T01060089
KCRS 172353Z AUTO 09004KT 10SM CLR 12/09 A3017 RMK AO2 SLP217 60003 T01220094 10139 20083 53010
KCRS 172253Z AUTO 09004KT 10SM CLR 13/09 A3015 RMK AO2 SLP210 T01330094
KCRS 172153Z AUTO 00000KT 9SM CLR 14/09 A3015 RMK AO2 SLP209 T01390094
KCRS 172053Z AUTO 28003KT 9SM FEW009 12/09 A3014 RMK AO2 SLP207 60003 T01220094 55005
KCRS 172006Z AUTO 18006KT 6SM BR FEW006 SCT070 BKN090 10/09 A3013 RMK AO2 T01000094
KCRS 171953Z AUTO 19006KT 6SM BR SCT060 BKN080 BKN095 09/09 A3013 RMK AO2 RAE13 SLP202 P0000 T00940089
KCRS 171908Z AUTO 18006KT 5SM -RA BR FEW004 OVC047 08/08 A3014 RMK AO2 P0000 T00830078
KCRS 171853Z AUTO 17006KT 4SM -RA BR OVC044 09/08 A3014 RMK AO2 SLP208 P0003 T00890078
KCRS 171831Z AUTO 17004KT 2 1/2SM -RA BR OVC040 08/07 A3016 RMK AO2 P0003 T00830072
KCRS 171817Z AUTO 00000KT 1 3/4SM RA BR SCT028 OVC040 08/08 A3017 RMK AO2 VIS 1 1/2V2 1/2 P0003 T00830078
KCRS 171810Z AUTO 00000KT 2SM RA BR BKN028 OVC042 08/08 A3017 RMK AO2 VIS 1 1/2V3 P0002 T00830078
KCRS 171753Z AUTO 16009KT 3SM RA BR OVC027 08/07 A3016 RMK AO2 RAB42 SLP212 P0001 60001 T00830072 10089 20061 50006
KCRS 171653Z AUTO 00000KT 7SM FEW007 OVC024 08/07 A3019 RMK AO2 SLP222 T00830067
KCRS 171553Z AUTO 00000KT 6SM BR FEW006 OVC021 08/07 A3017 RMK AO2 SLP218 T00780067
KCRS 171453Z AUTO 14005KT 6SM BR FEW005 BKN021 OVC085 07/06 A3014 RMK AO2 SLP206 60000 T00720061 50003
KCRS 171444Z AUTO 14005KT 6SM BR BKN021 BKN070 OVC080 07/06 A3015 RMK AO2 T00670061
KCRS 171423Z AUTO 00000KT 6SM BR SCT021 OVC075 07/06 A3015 RMK AO2 T00670061
KCRS 171353Z AUTO 01003KT 4SM BR SCT005 OVC019 06/06 A3016 RMK AO2 SLP213 T00610061
KCRS 171253Z AUTO 34009KT 4SM BR OVC008 06/06 A3014 RMK AO2 RAE30 CIG 005V012 SLP206 P0000 T00610056
KCRS 171153Z AUTO 32010KT 5SM -RA BR BKN008 OVC014 07/06 A3013 RMK AO2 CIG 006V010 SLP203 P0000 60000 T00670061 10094 20067 53018
KCRS 171125Z AUTO 33009KT 3SM -RA BR BKN008 OVC014 07/06 A3012 RMK AO2 CIG 007V013 P0000 T00720061
KCRS 171053Z AUTO 32010KT 8SM -RA OVC013 07/06 A3011 RMK AO2 RAB22 SLP196 P0000 T00720056
KCRS 171045Z AUTO 32008KT 9SM -RA OVC014 08/06 A3010 RMK AO2 RAB22 P0000 T00780056
KCRS 170953Z AUTO 32008KT 10SM OVC015 09/03 A3009 RMK AO2 SLP189 T00890033
KCRS 170853Z AUTO 31008KT 10SM OVC016 09/03 A3008 RMK AO2 SLP184 T00890033 55016
KCRS 170753Z AUTO 00000KT 10SM OVC016 09/03 A3007 RMK AO2 SLP182 T00890033
KCRS 170653Z AUTO 33003KT 10SM OVC018 09/03 A3010 RMK AO2 SLP193 T00940033
KCRS 170553Z AUTO 00000KT 10SM OVC020 09/03 A3013 RMK AO2 SLP200 T00940033 10122 20094 401940094 58019
KCRS 170453Z AUTO 36006KT 10SM OVC023 09/03 A3015 RMK AO2 SLP210 T00940033
KCRS 170353Z AUTO 35009KT 10SM OVC022 10/04 A3017 RMK AO2 SLP215 T01000039
KCRS 170253Z AUTO 01007KT 10SM OVC023 10/03 A3018 RMK AO2 SLP219 T01000033 58004
KCRS 170153Z AUTO 36009KT 10SM OVC025 11/04 A3019 RMK AO2 SLP221 T01110039
KCRS 170053Z AUTO 01011KT 10SM BKN026 OVC033 12/04 A3019 RMK AO2 SLP222 T01170044
KCRS 162353Z AUTO 02011KT 10SM OVC026 12/04 A3020 RMK AO2 SLP223 T01220044 10167 20122 50001
KCRS 162253Z AUTO 02010KT 10SM OVC028 13/04 A3020 RMK AO2 SLP224 T01330044
KCRS 162239Z AUTO 02011KT 10SM OVC029 14/04 A3020 RMK AO2 T01390044
KCRS 162153Z AUTO 03008KT 10SM OVC030 15/05 A3019 RMK AO2 SLP222 T01500050
KCRS 162150Z AUTO 03009KT 10SM OVC030 14/06 A3019 RMK AO2
KCRS 162053Z AUTO 35013G19KT 10SM OVC029 16/04 A3019 RMK AO2 SLP221 T01560044 56012
KCRS 161953Z AUTO 36014KT 10SM OVC026 16/05 A3020 RMK AO2 SLP222 T01610050